Pagina principale
METAR-TAF:

METAR-TAF

Aeroporti :

Aeroporto di Olbia-Costa Smeralda

Olbia, Italia

latitudine: 40-54N, longitudine: 009-31E, altezza: 11 m

Osservazione

Il bollettino è stato emesso 28 minuti fa, alle 10:20 UTC
Vento 2 kt da direzioni variabili
Temperature 12°C
Umidità 94%
Pressione 1011 hPa
Visibilità: 4000 m
Nuvoloso ad un'altezza di 1500 ft
pioggia debole

METAR: LIEO 091020Z VRB02KT 9999 4000W -RA BKN015 12/11 Q1011

Ora: 11:48 (10:48 UTC)

Previsione

Il bollettino è stato emesso 5 ore e 48 minuti fa, alle 05:00 UTC
Previsione valida dal 09 alle 06 UTC al 10 alle 06 UTC
Vento 10 kt da sud-est
Visibilità 10 km o più
Nuvoloso ad un'altezza di 2000 ft
Temporaneamente
dal 09 alle 06 UTC al 09 alle 12 UTC
rovesci di pioggia
Evoluzione graduale
dal 09 alle 08 UTC al 09 alle 10 UTC
Vento 7 kt da nord/nord-est

TAF: LIEO 090500Z 0906/1006 13010KT 9999 BKN020 TEMPO 0906/0912 SHRA BECMG 0908/0910 02007KT

Osservazioni e previsioni meteorologiche di più di 4000 aeroporti (messaggi METAR e TAF).

Le stazioni disponibili sono rappresentate dai dischi gialli e rossi sulla carta.

Puntare il mouse per vedere il nome della stazione.

Clicca sopra per visualizzare le osservazioni e previsioni meteorologiche.

Per cambiare la mappa : fare clic sui pulsanti verdi con una croce nera per ingrandire, il pulsante verde con un trattino per diminuire, o sulla freccia verde per le mappe adiacenti.


METAR-TAF: